createdAt,value
2019-06-15T00:00:29.132Z,83.28
2019-06-15T00:02:55.860Z,83.44
2019-06-15T00:05:22.623Z,83.50
2019-06-15T00:07:49.371Z,83.50
2019-06-15T00:10:19.886Z,84.06
2019-06-15T00:12:46.607Z,84.07
2019-06-15T00:15:13.304Z,84.36
2019-06-15T00:17:40.054Z,84.49
2019-06-15T00:20:06.764Z,84.30
2019-06-15T00:22:33.673Z,84.65
2019-06-15T00:25:00.451Z,84.67
2019-06-15T00:27:27.156Z,84.03
2019-06-15T00:29:54.142Z,83.88
2019-06-15T00:32:20.901Z,84.00
2019-06-15T00:34:47.704Z,83.70
2019-06-15T00:37:14.430Z,83.58
2019-06-15T00:39:41.139Z,83.46
2019-06-15T00:42:07.877Z,83.34
2019-06-15T00:44:34.914Z,83.14
2019-06-15T00:47:01.651Z,83.02
2019-06-15T00:49:28.392Z,82.48
2019-06-15T00:51:55.146Z,82.72
2019-06-15T00:54:22.152Z,82.53
2019-06-15T00:56:48.902Z,82.43
2019-06-15T00:59:15.771Z,82.34
2019-06-15T01:01:42.502Z,82.74
2019-06-15T01:04:09.556Z,82.52
2019-06-15T01:06:36.267Z,83.10
2019-06-15T01:09:04.168Z,83.10
2019-06-15T01:11:30.948Z,83.18
2019-06-15T01:13:57.730Z,83.26
2019-06-15T01:16:24.477Z,83.37
2019-06-15T01:18:51.194Z,83.83
2019-06-15T01:21:17.942Z,83.73
2019-06-15T01:23:44.667Z,83.68
2019-06-15T01:26:11.400Z,83.54
2019-06-15T01:28:38.092Z,82.74
2019-06-15T01:31:04.846Z,82.71
2019-06-15T01:33:31.703Z,82.91
2019-06-15T01:35:58.408Z,82.32
2019-06-15T01:38:25.119Z,81.53
2019-06-15T01:40:52.006Z,81.30
2019-06-15T01:43:18.734Z,81.82
2019-06-15T01:45:45.437Z,82.58
2019-06-15T01:48:12.170Z,82.39
2019-06-15T01:50:38.899Z,83.18
2019-06-15T01:53:05.936Z,84.04
2019-06-15T01:55:32.664Z,84.38
2019-06-15T01:57:59.386Z,83.87
2019-06-15T02:00:28.356Z,83.08
2019-06-15T02:02:55.096Z,83.53
2019-06-15T02:05:22.164Z,83.43
2019-06-15T02:07:48.871Z,83.50
2019-06-15T02:10:15.864Z,83.25
2019-06-15T02:12:42.575Z,82.92
2019-06-15T02:15:09.294Z,83.01
2019-06-15T02:17:36.061Z,83.06
2019-06-15T02:20:03.369Z,83.00
2019-06-15T02:22:30.192Z,83.49
2019-06-15T02:24:56.933Z,83.86
2019-06-15T02:27:24.866Z,83.78
2019-06-15T02:29:52.086Z,83.86
2019-06-15T02:32:18.804Z,83.88
2019-06-15T02:34:45.550Z,83.76
2019-06-15T02:37:12.270Z,83.53
2019-06-15T02:39:39.373Z,83.33
2019-06-15T02:42:06.224Z,83.19
2019-06-15T02:44:32.943Z,83.11
2019-06-15T02:46:59.635Z,83.15
2019-06-15T02:49:26.344Z,83.05
2019-06-15T02:51:56.032Z,83.06
2019-06-15T02:54:23.064Z,82.62
2019-06-15T02:56:49.784Z,82.30
2019-06-15T02:59:16.521Z,83.37
2019-06-15T03:01:43.276Z,84.36
2019-06-15T03:04:10.015Z,85.07
2019-06-15T03:06:36.753Z,85.82
2019-06-15T03:09:04.906Z,85.33
2019-06-15T03:11:31.771Z,84.69
2019-06-15T03:13:58.487Z,84.14
2019-06-15T03:16:25.301Z,83.96
2019-06-15T03:18:52.020Z,84.33
2019-06-15T03:21:18.752Z,84.15
2019-06-15T03:23:45.483Z,84.30
2019-06-15T03:26:12.299Z,84.06
2019-06-15T03:28:39.159Z,83.58
2019-06-15T03:31:05.879Z,83.87
2019-06-15T03:33:32.556Z,83.62
2019-06-15T03:35:59.258Z,83.66
2019-06-15T03:38:26.014Z,83.79
2019-06-15T03:40:59.700Z,83.69
2019-06-15T03:43:22.490Z,83.76
2019-06-15T03:45:49.522Z,83.83
2019-06-15T03:48:16.299Z,84.03
2019-06-15T03:50:43.020Z,84.32
2019-06-15T03:53:09.728Z,84.39
2019-06-15T03:55:36.406Z,84.14
2019-06-15T03:58:03.324Z,84.05
2019-06-15T04:00:47.109Z,84.42
2019-06-15T04:03:13.954Z,84.80
2019-06-15T04:05:41.324Z,84.63
2019-06-15T04:08:08.086Z,84.16
2019-06-15T04:10:34.793Z,84.06
2019-06-15T04:13:01.552Z,83.85
2019-06-15T04:15:28.889Z,83.92
2019-06-15T04:17:55.665Z,83.72
2019-06-15T04:20:22.424Z,83.50
2019-06-15T04:22:49.177Z,83.48
2019-06-15T04:25:15.879Z,83.28
2019-06-15T04:27:42.586Z,83.09
2019-06-15T04:30:09.864Z,82.94
2019-06-15T04:32:36.684Z,83.10
2019-06-15T04:35:07.243Z,83.03
2019-06-15T04:37:34.057Z,83.09
2019-06-15T04:40:00.775Z,83.30
2019-06-15T04:42:27.500Z,83.65
2019-06-15T04:44:54.546Z,83.54
2019-06-15T04:47:21.388Z,83.32
2019-06-15T04:49:48.144Z,83.86
2019-06-15T04:52:14.880Z,84.22
2019-06-15T04:54:41.730Z,84.22
2019-06-15T04:57:08.462Z,84.02
2019-06-15T04:59:35.203Z,83.75
2019-06-15T05:02:02.027Z,83.57
2019-06-15T05:04:28.786Z,83.48
2019-06-15T05:06:55.464Z,83.03
2019-06-15T05:09:22.270Z,82.91
2019-06-15T05:11:48.958Z,82.42
2019-06-15T05:14:15.671Z,82.12
2019-06-15T05:16:42.651Z,81.51
2019-06-15T05:19:09.357Z,81.10
2019-06-15T05:21:36.073Z,81.21
2019-06-15T05:24:02.818Z,81.05
2019-06-15T05:26:29.549Z,81.82
2019-06-15T05:28:56.349Z,81.69
2019-06-15T05:31:23.088Z,81.35
2019-06-15T05:33:49.827Z,81.42
2019-06-15T05:36:16.533Z,81.71
2019-06-15T05:38:43.250Z,81.54
2019-06-15T05:41:09.914Z,81.69
2019-06-15T05:43:36.729Z,82.37
2019-06-15T05:46:03.452Z,82.75
2019-06-15T05:48:31.760Z,82.87
2019-06-15T05:50:58.809Z,83.16
2019-06-15T05:53:25.539Z,83.03
2019-06-15T05:55:52.583Z,82.76
2019-06-15T05:58:19.604Z,82.40
2019-06-15T06:00:46.339Z,82.12
2019-06-15T06:03:13.062Z,81.44
2019-06-15T06:05:40.130Z,81.31
2019-06-15T06:08:07.153Z,80.68
2019-06-15T06:10:33.887Z,79.89
2019-06-15T06:13:00.628Z,79.17
2019-06-15T06:15:27.602Z,78.93
2019-06-15T06:17:57.549Z,79.18
2019-06-15T06:20:24.235Z,78.69
2019-06-15T06:22:50.966Z,79.16
2019-06-15T06:25:17.683Z,78.95
2019-06-15T06:27:44.375Z,78.87
2019-06-15T06:30:11.263Z,79.32
2019-06-15T06:32:39.522Z,79.45
2019-06-15T06:35:07.142Z,78.99
2019-06-15T06:37:34.329Z,78.91
2019-06-15T06:40:01.058Z,78.79
2019-06-15T06:42:27.935Z,79.13
2019-06-15T06:44:54.679Z,79.16
2019-06-15T06:47:21.397Z,79.09
2019-06-15T06:49:48.243Z,78.40
2019-06-15T06:52:14.958Z,78.08
2019-06-15T06:54:42.036Z,77.39
2019-06-15T06:57:09.694Z,77.50
2019-06-15T06:59:36.408Z,77.38
2019-06-15T07:02:03.505Z,76.90
2019-06-15T07:04:30.382Z,77.03
2019-06-15T07:06:57.243Z,77.14
2019-06-15T07:09:24.008Z,76.75
2019-06-15T07:11:51.140Z,76.44
2019-06-15T07:14:18.199Z,75.79
2019-06-15T07:16:44.927Z,74.92
2019-06-15T07:19:11.637Z,74.63
2019-06-15T07:21:38.367Z,74.32
2019-06-15T07:24:05.366Z,73.84
2019-06-15T07:26:32.088Z,73.25
2019-06-15T07:28:58.825Z,73.33
2019-06-15T07:31:28.490Z,72.25
2019-06-15T07:33:55.320Z,72.26
2019-06-15T07:36:22.053Z,72.02
2019-06-15T07:38:51.006Z,71.79
2019-06-15T07:41:17.814Z,71.98
2019-06-15T07:43:44.887Z,71.21
2019-06-15T07:46:11.611Z,71.26
2019-06-15T07:48:38.640Z,70.29
2019-06-15T07:51:05.402Z,70.20
2019-06-15T07:53:32.121Z,69.97
2019-06-15T07:55:59.014Z,69.97
2019-06-15T07:58:25.717Z,69.87
2019-06-15T08:00:52.476Z,69.89
2019-06-15T08:03:19.216Z,69.25
2019-06-15T08:05:46.421Z,69.00
2019-06-15T08:08:13.436Z,69.27
2019-06-15T08:10:41.001Z,69.79
2019-06-15T08:13:09.095Z,70.40
2019-06-15T08:15:35.830Z,70.57
2019-06-15T08:18:02.688Z,70.92
2019-06-15T08:20:32.343Z,70.85
2019-06-15T08:22:59.078Z,71.43
2019-06-15T08:25:25.784Z,71.94
2019-06-15T08:27:52.545Z,71.92
2019-06-15T08:30:26.276Z,72.08
2019-06-15T08:32:53.021Z,71.57
2019-06-15T08:35:19.858Z,71.27
2019-06-15T08:37:46.576Z,71.24
2019-06-15T08:40:13.327Z,70.86
2019-06-15T08:42:42.873Z,70.13
2019-06-15T08:45:10.194Z,69.68
2019-06-15T08:47:37.040Z,69.68
2019-06-15T08:50:04.317Z,69.22
2019-06-15T08:52:31.016Z,69.91
2019-06-15T08:54:57.759Z,69.94
2019-06-15T08:57:24.480Z,69.93
2019-06-15T08:59:51.269Z,70.57
2019-06-15T09:02:17.933Z,70.34
2019-06-15T09:04:44.667Z,70.50
2019-06-15T09:07:11.377Z,70.44
2019-06-15T09:09:38.116Z,70.28
2019-06-15T09:12:04.805Z,70.27
2019-06-15T09:14:31.528Z,70.30
2019-06-15T09:16:58.235Z,70.60
2019-06-15T09:19:24.950Z,70.89
2019-06-15T09:21:51.625Z,70.85
2019-06-15T09:24:18.334Z,70.50
2019-06-15T09:26:46.393Z,70.33
2019-06-15T09:29:13.197Z,70.61
2019-06-15T09:31:39.899Z,70.85
2019-06-15T09:34:18.593Z,70.91
2019-06-15T09:36:35.937Z,70.73
2019-06-15T09:39:03.495Z,70.42
2019-06-15T09:41:30.263Z,70.08
2019-06-15T09:43:57.027Z,69.79
2019-06-15T09:46:23.756Z,69.25
2019-06-15T09:48:50.534Z,70.85
2019-06-15T09:51:17.370Z,70.80
2019-06-15T09:53:46.897Z,70.59
2019-06-15T09:56:14.098Z,70.70
2019-06-15T09:58:40.805Z,70.63
2019-06-15T10:01:07.520Z,69.69
2019-06-15T10:03:34.270Z,68.98
2019-06-15T10:06:00.951Z,67.55
2019-06-15T10:08:27.689Z,67.40
2019-06-15T10:10:54.433Z,66.53
2019-06-15T10:13:21.463Z,65.62
2019-06-15T10:15:48.288Z,64.57
2019-06-15T10:18:20.043Z,64.31
2019-06-15T10:20:49.196Z,64.23
2019-06-15T10:23:15.941Z,63.96
2019-06-15T10:25:42.675Z,63.56
2019-06-15T10:28:09.395Z,63.23
2019-06-15T10:30:36.112Z,62.72
2019-06-15T10:33:02.829Z,63.11
2019-06-15T10:35:29.530Z,63.13
2019-06-15T10:37:56.265Z,62.73
2019-06-15T10:40:25.859Z,62.05
2019-06-15T10:42:52.541Z,60.86
2019-06-15T10:45:19.231Z,61.12
2019-06-15T10:47:45.913Z,61.14
2019-06-15T10:50:13.807Z,62.24
2019-06-15T10:52:40.592Z,64.47
2019-06-15T10:55:07.446Z,68.96
2019-06-15T10:57:34.530Z,70.33
2019-06-15T11:00:01.318Z,69.59
2019-06-15T11:02:28.059Z,69.90
2019-06-15T11:04:54.783Z,68.83
2019-06-15T11:07:21.487Z,68.85
2019-06-15T11:09:48.212Z,67.76
2019-06-15T11:12:14.904Z,67.24
2019-06-15T11:14:41.601Z,66.33
2019-06-15T11:17:08.315Z,65.89
2019-06-15T11:19:35.039Z,65.38
2019-06-15T11:22:01.822Z,64.58
2019-06-15T11:24:28.572Z,64.02
2019-06-15T11:26:55.268Z,61.61
2019-06-15T11:29:22.282Z,60.71
2019-06-15T11:31:49.310Z,60.22
2019-06-15T11:34:16.106Z,60.17
2019-06-15T11:36:42.832Z,59.58
2019-06-15T11:39:09.550Z,59.15
2019-06-15T11:41:36.297Z,60.07
2019-06-15T11:44:03.051Z,58.79
2019-06-15T11:46:29.811Z,58.19
2019-06-15T11:48:56.516Z,57.47
2019-06-15T11:51:23.606Z,57.48
2019-06-15T11:53:50.315Z,58.08
2019-06-15T11:56:17.045Z,56.80
2019-06-15T11:58:43.739Z,56.18
2019-06-15T12:01:10.475Z,55.50
2019-06-15T12:03:37.201Z,55.79
2019-06-15T12:06:03.890Z,56.78
2019-06-15T12:08:30.590Z,55.44
2019-06-15T12:10:57.323Z,53.88
2019-06-15T12:13:24.034Z,52.95
2019-06-15T12:15:51.176Z,51.80
2019-06-15T12:18:17.913Z,51.87
2019-06-15T12:20:44.659Z,51.56
2019-06-15T12:23:11.472Z,50.97
2019-06-15T12:25:38.203Z,50.89
2019-06-15T12:28:04.911Z,51.27
2019-06-15T12:30:46.273Z,51.18
2019-06-15T12:33:04.442Z,50.40
2019-06-15T12:35:31.557Z,48.29
2019-06-15T12:37:58.252Z,48.33
2019-06-15T12:40:25.142Z,47.88
2019-06-15T12:42:52.256Z,48.11
2019-06-15T12:45:19.006Z,47.96
2019-06-15T12:47:45.816Z,47.99
2019-06-15T12:50:12.534Z,47.48
2019-06-15T12:52:39.539Z,46.87
2019-06-15T12:55:06.246Z,45.39
2019-06-15T12:57:32.941Z,45.16
2019-06-15T12:59:59.634Z,43.62
2019-06-15T13:02:26.363Z,43.58
2019-06-15T13:04:53.096Z,44.73
2019-06-15T13:07:19.834Z,45.34
2019-06-15T13:09:46.626Z,46.07
2019-06-15T13:12:13.340Z,45.47
2019-06-15T13:14:40.085Z,45.07
2019-06-15T13:17:06.805Z,45.18
2019-06-15T13:19:33.695Z,44.49
2019-06-15T13:22:00.550Z,44.02
2019-06-15T13:24:27.326Z,44.00
2019-06-15T13:26:57.193Z,43.17
2019-06-15T13:29:23.917Z,42.62
2019-06-15T13:31:50.677Z,43.38
2019-06-15T13:34:17.396Z,43.51
2019-06-15T13:36:44.144Z,43.62
2019-06-15T13:39:10.878Z,44.62
2019-06-15T13:41:37.602Z,44.46
2019-06-15T13:44:04.454Z,44.51
2019-06-15T13:46:31.181Z,44.46
2019-06-15T13:48:57.878Z,44.07
2019-06-15T13:51:24.622Z,43.24
2019-06-15T13:53:51.338Z,43.32
2019-06-15T13:56:18.044Z,43.00
2019-06-15T13:58:44.838Z,42.57
2019-06-15T14:01:11.721Z,41.90
2019-06-15T14:03:38.532Z,42.29
2019-06-15T14:06:05.833Z,42.79
2019-06-15T14:08:32.857Z,42.45
2019-06-15T14:10:59.685Z,42.68
2019-06-15T14:13:26.423Z,41.88
2019-06-15T14:15:53.161Z,41.18
2019-06-15T14:18:19.885Z,41.11
2019-06-15T14:20:47.021Z,41.61
2019-06-15T14:23:13.741Z,41.65
2019-06-15T14:25:40.470Z,41.47
2019-06-15T14:28:07.193Z,41.33
2019-06-15T14:30:34.174Z,41.33
2019-06-15T14:33:03.272Z,41.57
2019-06-15T14:35:29.962Z,41.17
2019-06-15T14:37:56.974Z,40.75
2019-06-15T14:40:23.673Z,40.03
2019-06-15T14:42:50.514Z,39.01
2019-06-15T14:45:17.537Z,38.53
2019-06-15T14:47:44.579Z,37.58
2019-06-15T14:50:11.285Z,37.15
2019-06-15T14:52:38.025Z,37.18
2019-06-15T14:55:07.034Z,37.60
2019-06-15T14:57:36.064Z,37.64
2019-06-15T15:00:05.837Z,37.63
2019-06-15T15:02:31.522Z,37.20
2019-06-15T15:04:58.277Z,35.81
2019-06-15T15:07:26.295Z,36.13
2019-06-15T15:09:53.369Z,36.04
2019-06-15T15:12:20.635Z,36.02
2019-06-15T15:14:47.641Z,36.44
2019-06-15T15:17:17.104Z,36.31
2019-06-15T15:19:43.039Z,35.70
2019-06-15T15:22:09.775Z,36.94
2019-06-15T15:24:36.475Z,37.42
2019-06-15T15:27:14.988Z,37.03
2019-06-15T15:29:49.072Z,37.58
2019-06-15T15:32:25.085Z,38.23
2019-06-15T15:34:44.407Z,38.72
2019-06-15T15:37:11.163Z,39.33
2019-06-15T15:39:38.186Z,39.76
2019-06-15T15:42:06.577Z,39.77
2019-06-15T15:44:35.987Z,39.72
2019-06-15T15:47:02.571Z,39.60
2019-06-15T15:49:29.266Z,40.85
2019-06-15T15:51:56.714Z,40.92
2019-06-15T15:54:23.536Z,41.15
2019-06-15T15:56:50.207Z,41.53
2019-06-15T15:59:16.907Z,41.73
2019-06-15T16:01:45.980Z,41.56
2019-06-15T16:04:12.232Z,39.81
2019-06-15T16:06:38.974Z,38.54
2019-06-15T16:09:06.308Z,38.27
2019-06-15T16:11:32.957Z,36.83
2019-06-15T16:13:59.755Z,35.58
2019-06-15T16:16:26.832Z,37.22
2019-06-15T16:18:56.001Z,37.68
2019-06-15T16:21:22.232Z,36.93
2019-06-15T16:23:49.004Z,35.90
2019-06-15T16:26:16.992Z,35.91
2019-06-15T16:28:45.995Z,35.70
2019-06-15T16:31:14.121Z,35.12
2019-06-15T16:33:41.505Z,35.19
2019-06-15T16:36:08.216Z,34.86
2019-06-15T16:38:36.559Z,33.75
2019-06-15T16:41:03.428Z,34.56
2019-06-15T16:43:30.440Z,33.95
2019-06-15T16:45:57.208Z,33.83
2019-06-15T16:48:26.109Z,34.68
2019-06-15T16:50:53.078Z,34.08
2019-06-15T16:53:19.788Z,34.42
2019-06-15T16:55:46.935Z,35.14
2019-06-15T16:58:15.984Z,35.80
2019-06-15T17:00:42.391Z,36.94
2019-06-15T17:03:21.054Z,37.73
2019-06-15T17:05:38.044Z,36.92
2019-06-15T17:08:07.030Z,35.93
2019-06-15T17:10:39.648Z,36.18
2019-06-15T17:13:06.750Z,36.67
2019-06-15T17:15:33.689Z,37.60
2019-06-15T17:18:00.391Z,38.39
2019-06-15T17:20:31.449Z,38.08
2019-06-15T17:22:58.632Z,37.88
2019-06-15T17:25:27.002Z,37.82
2019-06-15T17:27:56.183Z,37.85
2019-06-15T17:30:22.583Z,38.45
2019-06-15T17:32:49.345Z,38.30
2019-06-15T17:35:16.933Z,38.65
2019-06-15T17:37:43.894Z,39.59
2019-06-15T17:40:10.596Z,39.91
2019-06-15T17:42:38.534Z,39.16
2019-06-15T17:45:06.691Z,39.32
2019-06-15T17:47:33.752Z,39.57
2019-06-15T17:50:00.469Z,39.98
2019-06-15T17:52:27.206Z,40.03
2019-06-15T17:54:56.092Z,40.37
2019-06-15T17:57:22.667Z,40.64
2019-06-15T17:59:49.402Z,40.87
2019-06-15T18:02:17.127Z,40.79
2019-06-15T18:04:44.083Z,40.68
2019-06-15T18:07:20.405Z,40.21
2019-06-15T18:09:47.115Z,39.20
2019-06-15T18:12:16.866Z,39.44
2019-06-15T18:14:46.228Z,40.82
2019-06-15T18:17:12.235Z,41.17
2019-06-15T18:19:38.983Z,41.14
2019-06-15T18:22:20.372Z,41.24
2019-06-15T18:24:51.277Z,41.15
2019-06-15T18:27:21.919Z,41.37
2019-06-15T18:29:48.847Z,41.12
2019-06-15T18:32:17.118Z,41.59
2019-06-15T18:34:46.318Z,41.86
2019-06-15T18:37:12.742Z,41.72
2019-06-15T18:39:39.781Z,41.30
2019-06-15T18:42:07.744Z,41.26
2019-06-15T18:44:36.641Z,41.04
2019-06-15T18:47:03.700Z,41.08
2019-06-15T18:49:31.932Z,41.19
2019-06-15T18:51:59.023Z,40.72
2019-06-15T18:54:26.868Z,40.68
2019-06-15T18:56:53.756Z,40.61
2019-06-15T18:59:20.557Z,40.75
2019-06-15T19:01:47.395Z,40.80
2019-06-15T19:04:30.103Z,41.03
2019-06-15T19:06:46.736Z,41.43
2019-06-15T19:09:17.437Z,41.67
2019-06-15T19:11:49.776Z,41.61
2019-06-15T19:14:16.727Z,42.19
2019-06-15T19:16:43.448Z,42.41
2019-06-15T19:19:10.159Z,42.29
2019-06-15T19:21:36.893Z,43.12
2019-06-15T19:24:07.285Z,43.04
2019-06-15T19:26:37.576Z,43.18
2019-06-15T19:29:06.552Z,44.03
2019-06-15T19:31:36.592Z,44.23
2019-06-15T19:34:02.780Z,44.37
2019-06-15T19:36:43.760Z,44.33
2019-06-15T19:39:10.486Z,44.63
2019-06-15T19:41:38.100Z,44.73
2019-06-15T19:44:10.187Z,45.33
2019-06-15T19:46:37.113Z,45.64
2019-06-15T19:49:06.202Z,45.57
2019-06-15T19:51:32.578Z,45.65
2019-06-15T19:53:59.315Z,45.65
2019-06-15T19:56:26.154Z,45.82
2019-06-15T19:58:52.879Z,46.04
2019-06-15T20:01:19.590Z,46.09
2019-06-15T20:03:46.585Z,46.79
2019-06-15T20:06:16.804Z,48.33
2019-06-15T20:08:42.767Z,48.97
2019-06-15T20:11:09.500Z,49.50
2019-06-15T20:13:37.278Z,49.82
2019-06-15T20:16:05.281Z,49.85
2019-06-15T20:18:32.850Z,49.89
2019-06-15T20:20:59.551Z,49.92
2019-06-15T20:23:28.895Z,49.95
2019-06-15T20:25:55.909Z,50.32
2019-06-15T20:28:23.153Z,50.45
2019-06-15T20:30:49.885Z,50.50
2019-06-15T20:33:16.924Z,50.73
2019-06-15T20:35:46.899Z,50.90
2019-06-15T20:38:16.075Z,50.95
2019-06-15T20:40:43.789Z,51.26
2019-06-15T20:43:10.716Z,51.54
2019-06-15T20:45:37.976Z,51.87
2019-06-15T20:48:06.846Z,52.08
2019-06-15T20:50:36.076Z,52.24
2019-06-15T20:53:06.083Z,52.43
2019-06-15T20:55:32.591Z,52.38
2019-06-15T20:58:01.163Z,53.80
2019-06-15T21:00:27.883Z,54.13
2019-06-15T21:03:06.766Z,54.77
2019-06-15T21:05:41.128Z,55.41
2019-06-15T21:08:06.851Z,55.75
2019-06-15T21:10:33.942Z,55.94
2019-06-15T21:13:13.589Z,56.10
2019-06-15T21:15:44.229Z,56.49
2019-06-15T21:18:11.053Z,56.75
2019-06-15T21:20:43.453Z,56.89
2019-06-15T21:23:10.165Z,56.92
2019-06-15T21:25:36.985Z,57.09
2019-06-15T21:28:06.513Z,56.76
2019-06-15T21:30:32.660Z,56.54
2019-06-15T21:32:59.356Z,56.48
2019-06-15T21:35:26.769Z,56.37
2019-06-15T21:37:57.230Z,56.26
2019-06-15T21:40:28.198Z,56.11
2019-06-15T21:42:56.249Z,55.82
2019-06-15T21:45:23.271Z,55.65
2019-06-15T21:47:50.004Z,55.85
2019-06-15T21:50:16.726Z,55.93
2019-06-15T21:52:45.820Z,56.18
2019-06-15T21:55:12.141Z,56.48
2019-06-15T21:57:38.903Z,56.13
2019-06-15T22:00:07.651Z,56.15
2019-06-15T22:02:36.339Z,56.00
2019-06-15T22:05:03.418Z,56.25
2019-06-15T22:07:30.123Z,56.99
2019-06-15T22:09:56.831Z,57.18
2019-06-15T22:15:06.750Z,57.48
2019-06-15T22:17:33.132Z,57.91
2019-06-15T22:20:00.187Z,58.28
2019-06-15T22:22:28.100Z,58.21
2019-06-15T22:24:56.051Z,57.82
2019-06-15T22:27:22.799Z,58.31
2019-06-15T22:29:49.506Z,59.02
2019-06-15T22:32:16.630Z,59.57
2019-06-15T22:34:43.564Z,59.81
2019-06-15T22:37:10.260Z,59.46
2019-06-15T22:39:37.264Z,58.97
2019-06-15T22:42:06.692Z,58.54
2019-06-15T22:44:32.695Z,58.61
2019-06-15T22:46:59.400Z,58.63
2019-06-15T22:49:26.140Z,58.53
2019-06-15T22:51:52.948Z,58.60
2019-06-15T22:54:19.652Z,58.51
2019-06-15T22:56:46.848Z,58.54
2019-06-15T22:59:14.005Z,58.44
2019-06-15T23:01:40.735Z,58.52
2019-06-15T23:04:12.762Z,58.76
2019-06-15T23:06:42.937Z,58.87
2019-06-15T23:09:08.094Z,58.84
2019-06-15T23:11:35.955Z,58.82
2019-06-15T23:14:02.830Z,58.58
2019-06-15T23:16:29.566Z,58.44
2019-06-15T23:18:57.120Z,58.48
2019-06-15T23:21:26.582Z,58.44
2019-06-15T23:23:52.701Z,58.15
2019-06-15T23:26:19.429Z,58.08
2019-06-15T23:28:46.728Z,58.95
2019-06-15T23:31:13.687Z,59.65
2019-06-15T23:33:40.401Z,60.27
2019-06-15T23:36:12.418Z,60.85
2019-06-15T23:38:39.655Z,63.01
2019-06-15T23:41:06.960Z,63.73
2019-06-15T23:43:36.081Z,64.78
2019-06-15T23:46:02.442Z,64.87
2019-06-15T23:48:29.141Z,64.29
2019-06-15T23:50:56.949Z,65.02
2019-06-15T23:53:25.927Z,64.65
2019-06-15T23:55:52.526Z,64.57
2019-06-15T23:58:19.269Z,64.55
